METAR AND TAF INFORMATION
METAR FOR KETB
ADDS - METARS form results

(0156 UTC 21 September 2018)
Data provider http://aviationweather.gov/metar/data/
 
METAR text: KETB 210135Z AUTO 00000KT 2 1/2SM BR OVC004 20/20 A2975 RMK AO2
Conditions at: KETB (WEST BEND , WI, US) observed 0135 UTC 21 September 2018
Temperature: 20.0°C (68°F)
Dewpoint: 20.0°C (68°F) [RH = 100%]
Pressure (altimeter): 29.75 inches Hg (1007.5 mb)
Winds: calm
Visibility: 2.50 miles (4.02 km)
Ceiling: 400 feet AGL
Clouds: overcast cloud deck at 400 feet AGL
Weather: BR  (mist)

METAR text: KETB 210115Z AUTO 00000KT 2SM BR OVC002 20/20 A2975 RMK AO2
Conditions at: KETB (WEST BEND , WI, US) observed 0115 UTC 21 September 2018
Temperature: 20.0°C (68°F)
Dewpoint: 20.0°C (68°F) [RH = 100%]
Pressure (altimeter): 29.75 inches Hg (1007.5 mb)
Winds: calm
Visibility: 2.00 miles (3.22 km)
Ceiling: 200 feet AGL
Clouds: overcast cloud deck at 200 feet AGL
Weather: BR  (mist)

 AIRPORT MAP

 RUNWAY INFORMATION
Runway 06 Runway length 3897 ft Runway width 75 ft
Runway elevation 886 ft Runway displaced threshold 0 ft Runway heading 59
Runway 24 Runway length 3897 ft Runway width 75 ft
Runway elevation 874 ft Runway displaced threshold 0 ft Runway heading 239
Runway 13 Runway length 4494 ft Runway width 75 ft
Runway elevation 882 ft Runway displaced threshold 0 ft Runway heading 127
Runway 31 Runway length 4494 ft Runway width 75 ft
Runway elevation 868 ft Runway displaced threshold 0 ft Runway heading 307

 AIRPORT FREQUENCIES
Type A/D Name MILWAUKEE Frequency 125.35 MHZ
Type AWOS Name AWOS 3 Frequency 120 MHZ
Type CLD Name CLNC DEL Frequency 124.75 MHZ
Type OPS Name ARNG OPS Frequency 40.9 MHZ
Type RDO Name GREEN BAY Frequency 109.8 MHZ
Type UNIC Name CTAF/UNICO Frequency 122.8 MHZ

 AIRPORT NEAR NAVIGATION AIDS



Powered by Virtual Airlines Manager [v2.6.2]